sensor_id;sensor_type;location;lat;lon;timestamp;P1;durP1;ratioP1;P2;durP2;ratioP2
12445;SDS011;6287;50.984;7.022;2022-08-05T00:00:18;2.10;;;1.83;;
12445;SDS011;6287;50.984;7.022;2022-08-05T00:02:44;2.30;;;1.50;;
12445;SDS011;6287;50.984;7.022;2022-08-05T00:05:11;2.45;;;1.40;;
12445;SDS011;6287;50.984;7.022;2022-08-05T00:07:38;3.72;;;1.58;;
12445;SDS011;6287;50.984;7.022;2022-08-05T00:10:04;1.73;;;1.63;;
12445;SDS011;6287;50.984;7.022;2022-08-05T00:12:30;2.17;;;1.58;;
12445;SDS011;6287;50.984;7.022;2022-08-05T00:14:58;2.38;;;1.48;;
12445;SDS011;6287;50.984;7.022;2022-08-05T00:17:28;1.60;;;1.50;;
12445;SDS011;6287;50.984;7.022;2022-08-05T00:19:54;1.98;;;1.70;;
12445;SDS011;6287;50.984;7.022;2022-08-05T00:22:21;1.83;;;1.70;;
12445;SDS011;6287;50.984;7.022;2022-08-05T00:24:47;2.28;;;1.60;;
12445;SDS011;6287;50.984;7.022;2022-08-05T00:27:17;1.90;;;1.80;;
12445;SDS011;6287;50.984;7.022;2022-08-05T00:29:43;2.15;;;1.60;;
12445;SDS011;6287;50.984;7.022;2022-08-05T00:32:11;1.77;;;1.67;;
12445;SDS011;6287;50.984;7.022;2022-08-05T00:34:37;1.98;;;1.50;;
12445;SDS011;6287;50.984;7.022;2022-08-05T00:37:08;2.05;;;1.83;;
12445;SDS011;6287;50.984;7.022;2022-08-05T00:39:34;2.17;;;1.38;;
12445;SDS011;6287;50.984;7.022;2022-08-05T00:41:59;2.50;;;1.77;;
12445;SDS011;6287;50.984;7.022;2022-08-05T00:44:25;1.40;;;1.30;;
12445;SDS011;6287;50.984;7.022;2022-08-05T00:46:52;1.70;;;1.30;;
12445;SDS011;6287;50.984;7.022;2022-08-05T00:49:18;1.70;;;1.60;;
12445;SDS011;6287;50.984;7.022;2022-08-05T00:51:46;1.85;;;1.33;;
12445;SDS011;6287;50.984;7.022;2022-08-05T00:54:12;3.60;;;1.73;;
12445;SDS011;6287;50.984;7.022;2022-08-05T00:56:39;1.52;;;1.40;;
12445;SDS011;6287;50.984;7.022;2022-08-05T00:59:05;2.45;;;1.80;;
12445;SDS011;6287;50.984;7.022;2022-08-05T01:01:31;2.65;;;1.55;;
12445;SDS011;6287;50.984;7.022;2022-08-05T01:04:00;3.67;;;1.50;;
12445;SDS011;6287;50.984;7.022;2022-08-05T01:06:26;1.73;;;1.63;;
12445;SDS011;6287;50.984;7.022;2022-08-05T01:08:53;2.58;;;1.88;;
12445;SDS011;6287;50.984;7.022;2022-08-05T01:11:23;1.60;;;1.50;;
12445;SDS011;6287;50.984;7.022;2022-08-05T01:14:02;2.97;;;1.70;;
12445;SDS011;6287;50.984;7.022;2022-08-05T01:16:57;1.90;;;1.70;;
12445;SDS011;6287;50.984;7.022;2022-08-05T01:19:38;1.80;;;1.70;;
12445;SDS011;6287;50.984;7.022;2022-08-05T01:30:30;2.20;;;1.15;;
12445;SDS011;6287;50.984;7.022;2022-08-05T01:33:01;1.63;;;1.50;;
12445;SDS011;6287;50.984;7.022;2022-08-05T01:35:33;2.25;;;1.58;;
12445;SDS011;6287;50.984;7.022;2022-08-05T01:38:03;1.98;;;1.50;;
12445;SDS011;6287;50.984;7.022;2022-08-05T01:40:33;2.28;;;1.67;;
12445;SDS011;6287;50.984;7.022;2022-08-05T01:43:03;1.88;;;1.42;;
12445;SDS011;6287;50.984;7.022;2022-08-05T01:45:31;2.72;;;1.58;;
12445;SDS011;6287;50.984;7.022;2022-08-05T01:47:58;1.75;;;1.50;;
12445;SDS011;6287;50.984;7.022;2022-08-05T01:50:35;2.42;;;1.50;;
12445;SDS011;6287;50.984;7.022;2022-08-05T01:53:05;1.50;;;1.40;;
12445;SDS011;6287;50.984;7.022;2022-08-05T01:55:38;1.83;;;1.48;;
12445;SDS011;6287;50.984;7.022;2022-08-05T01:58:08;1.40;;;1.30;;
12445;SDS011;6287;50.984;7.022;2022-08-05T02:00:37;1.25;;;1.17;;
12445;SDS011;6287;50.984;7.022;2022-08-05T02:03:09;2.15;;;1.40;;
12445;SDS011;6287;50.984;7.022;2022-08-05T02:05:40;1.52;;;1.20;;
12445;SDS011;6287;50.984;7.022;2022-08-05T02:08:10;1.42;;;1.33;;
12445;SDS011;6287;50.984;7.022;2022-08-05T02:10:43;3.70;;;1.58;;
12445;SDS011;6287;50.984;7.022;2022-08-05T02:13:14;1.85;;;1.63;;
12445;SDS011;6287;50.984;7.022;2022-08-05T02:15:50;1.70;;;1.60;;
12445;SDS011;6287;50.984;7.022;2022-08-05T02:18:39;2.25;;;1.90;;
12445;SDS011;6287;50.984;7.022;2022-08-05T02:21:24;1.70;;;1.60;;
12445;SDS011;6287;50.984;7.022;2022-08-05T02:23:58;2.38;;;1.52;;
12445;SDS011;6287;50.984;7.022;2022-08-05T02:26:32;5.43;;;1.80;;
12445;SDS011;6287;50.984;7.022;2022-08-05T02:29:03;2.63;;;1.70;;
12445;SDS011;6287;50.984;7.022;2022-08-05T02:31:35;1.88;;;1.42;;
12445;SDS011;6287;50.984;7.022;2022-08-05T02:34:08;3.78;;;2.00;;
12445;SDS011;6287;50.984;7.022;2022-08-05T02:36:44;4.10;;;2.20;;
12445;SDS011;6287;50.984;7.022;2022-08-05T02:39:20;4.40;;;2.75;;
12445;SDS011;6287;50.984;7.022;2022-08-05T02:41:50;4.82;;;3.00;;
12445;SDS011;6287;50.984;7.022;2022-08-05T02:44:19;5.10;;;3.10;;
12445;SDS011;6287;50.984;7.022;2022-08-05T02:46:47;4.60;;;3.70;;
12445;SDS011;6287;50.984;7.022;2022-08-05T02:49:14;5.57;;;3.50;;
12445;SDS011;6287;50.984;7.022;2022-08-05T02:51:45;3.80;;;3.38;;
12445;SDS011;6287;50.984;7.022;2022-08-05T02:54:12;9.05;;;3.55;;
12445;SDS011;6287;50.984;7.022;2022-08-05T02:56:39;6.30;;;3.78;;
12445;SDS011;6287;50.984;7.022;2022-08-05T02:59:09;6.28;;;3.53;;
12445;SDS011;6287;50.984;7.022;2022-08-05T03:01:36;5.50;;;3.15;;
12445;SDS011;6287;50.984;7.022;2022-08-05T03:04:09;6.50;;;4.40;;
12445;SDS011;6287;50.984;7.022;2022-08-05T03:06:40;6.93;;;4.90;;
12445;SDS011;6287;50.984;7.022;2022-08-05T03:09:07;9.52;;;6.13;;
12445;SDS011;6287;50.984;7.022;2022-08-05T03:11:36;7.45;;;5.47;;
12445;SDS011;6287;50.984;7.022;2022-08-05T03:14:09;8.60;;;5.68;;
12445;SDS011;6287;50.984;7.022;2022-08-05T03:16:35;9.80;;;5.47;;
12445;SDS011;6287;50.984;7.022;2022-08-05T03:19:01;7.05;;;5.18;;
12445;SDS011;6287;50.984;7.022;2022-08-05T03:21:29;11.98;;;6.80;;
12445;SDS011;6287;50.984;7.022;2022-08-05T03:23:55;11.90;;;6.72;;
12445;SDS011;6287;50.984;7.022;2022-08-05T03:26:27;9.43;;;6.30;;
12445;SDS011;6287;50.984;7.022;2022-08-05T03:28:55;10.23;;;6.95;;
12445;SDS011;6287;50.984;7.022;2022-08-05T03:31:23;8.70;;;6.25;;
12445;SDS011;6287;50.984;7.022;2022-08-05T03:33:52;7.95;;;6.13;;
12445;SDS011;6287;50.984;7.022;2022-08-05T03:36:20;8.60;;;6.80;;
12445;SDS011;6287;50.984;7.022;2022-08-05T03:38:47;9.60;;;6.90;;
12445;SDS011;6287;50.984;7.022;2022-08-05T03:41:14;10.50;;;7.35;;
12445;SDS011;6287;50.984;7.022;2022-08-05T03:43:42;10.55;;;5.68;;
12445;SDS011;6287;50.984;7.022;2022-08-05T03:46:08;11.20;;;6.60;;
12445;SDS011;6287;50.984;7.022;2022-08-05T03:48:36;9.95;;;7.43;;
12445;SDS011;6287;50.984;7.022;2022-08-05T03:53:59;10.45;;;6.53;;
12445;SDS011;6287;50.984;7.022;2022-08-05T03:59:12;10.95;;;7.45;;
12445;SDS011;6287;50.984;7.022;2022-08-05T04:02:02;10.30;;;7.07;;
12445;SDS011;6287;50.984;7.022;2022-08-05T04:04:28;10.23;;;6.80;;
12445;SDS011;6287;50.984;7.022;2022-08-05T04:06:59;10.43;;;7.55;;
12445;SDS011;6287;50.984;7.022;2022-08-05T04:09:25;8.68;;;6.57;;
12445;SDS011;6287;50.984;7.022;2022-08-05T04:11:53;10.05;;;7.07;;
12445;SDS011;6287;50.984;7.022;2022-08-05T04:14:20;11.70;;;7.53;;
12445;SDS011;6287;50.984;7.022;2022-08-05T04:16:46;9.70;;;7.60;;
12445;SDS011;6287;50.984;7.022;2022-08-05T04:19:12;9.98;;;7.15;;
12445;SDS011;6287;50.984;7.022;2022-08-05T04:21:40;11.18;;;8.40;;
12445;SDS011;6287;50.984;7.022;2022-08-05T04:24:06;11.00;;;7.45;;
12445;SDS011;6287;50.984;7.022;2022-08-05T04:26:34;10.27;;;8.13;;
12445;SDS011;6287;50.984;7.022;2022-08-05T04:29:00;10.90;;;8.15;;
12445;SDS011;6287;50.984;7.022;2022-08-05T04:31:28;12.50;;;8.43;;
12445;SDS011;6287;50.984;7.022;2022-08-05T04:33:56;14.98;;;8.90;;
12445;SDS011;6287;50.984;7.022;2022-08-05T04:36:22;10.52;;;8.73;;
12445;SDS011;6287;50.984;7.022;2022-08-05T04:38:47;14.00;;;9.77;;
12445;SDS011;6287;50.984;7.022;2022-08-05T04:41:16;10.38;;;8.63;;
12445;SDS011;6287;50.984;7.022;2022-08-05T04:43:42;12.60;;;9.10;;
12445;SDS011;6287;50.984;7.022;2022-08-05T04:46:09;14.60;;;9.50;;
12445;SDS011;6287;50.984;7.022;2022-08-05T04:48:38;13.15;;;9.50;;
12445;SDS011;6287;50.984;7.022;2022-08-05T04:51:03;13.77;;;9.70;;
12445;SDS011;6287;50.984;7.022;2022-08-05T04:53:29;13.05;;;9.85;;
12445;SDS011;6287;50.984;7.022;2022-08-05T04:55:55;13.40;;;9.75;;
12445;SDS011;6287;50.984;7.022;2022-08-05T04:58:23;16.80;;;10.45;;
12445;SDS011;6287;50.984;7.022;2022-08-05T05:00:48;15.20;;;10.65;;
12445;SDS011;6287;50.984;7.022;2022-08-05T05:03:14;13.73;;;9.55;;
12445;SDS011;6287;50.984;7.022;2022-08-05T05:05:39;12.55;;;8.43;;
12445;SDS011;6287;50.984;7.022;2022-08-05T05:08:08;13.48;;;9.25;;
12445;SDS011;6287;50.984;7.022;2022-08-05T05:10:42;14.85;;;10.13;;
12445;SDS011;6287;50.984;7.022;2022-08-05T05:13:15;14.57;;;9.60;;
12445;SDS011;6287;50.984;7.022;2022-08-05T05:15:42;16.92;;;9.27;;
12445;SDS011;6287;50.984;7.022;2022-08-05T05:18:11;12.85;;;9.73;;
12445;SDS011;6287;50.984;7.022;2022-08-05T05:20:39;17.02;;;10.88;;
12445;SDS011;6287;50.984;7.022;2022-08-05T05:23:09;14.95;;;10.25;;
12445;SDS011;6287;50.984;7.022;2022-08-05T05:25:35;14.15;;;10.75;;
12445;SDS011;6287;50.984;7.022;2022-08-05T05:28:03;14.23;;;10.38;;
12445;SDS011;6287;50.984;7.022;2022-08-05T05:30:31;17.25;;;11.73;;
12445;SDS011;6287;50.984;7.022;2022-08-05T05:32:59;14.52;;;9.65;;
12445;SDS011;6287;50.984;7.022;2022-08-05T05:35:26;18.30;;;11.93;;
12445;SDS011;6287;50.984;7.022;2022-08-05T05:37:56;18.85;;;12.93;;
12445;SDS011;6287;50.984;7.022;2022-08-05T05:40:27;20.38;;;13.52;;
12445;SDS011;6287;50.984;7.022;2022-08-05T05:42:56;16.65;;;11.93;;
12445;SDS011;6287;50.984;7.022;2022-08-05T05:45:22;22.85;;;13.73;;
12445;SDS011;6287;50.984;7.022;2022-08-05T05:47:48;18.98;;;13.55;;
12445;SDS011;6287;50.984;7.022;2022-08-05T05:50:14;20.42;;;14.50;;
12445;SDS011;6287;50.984;7.022;2022-08-05T05:52:45;18.92;;;13.65;;
12445;SDS011;6287;50.984;7.022;2022-08-05T05:55:12;22.35;;;13.82;;
12445;SDS011;6287;50.984;7.022;2022-08-05T05:57:42;18.45;;;12.55;;
12445;SDS011;6287;50.984;7.022;2022-08-05T06:00:15;21.10;;;13.18;;
12445;SDS011;6287;50.984;7.022;2022-08-05T06:02:45;20.88;;;13.63;;
12445;SDS011;6287;50.984;7.022;2022-08-05T06:05:17;22.00;;;14.55;;
12445;SDS011;6287;50.984;7.022;2022-08-05T06:07:44;19.05;;;13.23;;
12445;SDS011;6287;50.984;7.022;2022-08-05T06:10:10;23.30;;;14.95;;
12445;SDS011;6287;50.984;7.022;2022-08-05T06:12:37;22.98;;;14.23;;
12445;SDS011;6287;50.984;7.022;2022-08-05T06:15:03;21.23;;;13.70;;
12445;SDS011;6287;50.984;7.022;2022-08-05T06:17:30;25.83;;;13.85;;
12445;SDS011;6287;50.984;7.022;2022-08-05T06:19:59;26.25;;;15.02;;
12445;SDS011;6287;50.984;7.022;2022-08-05T06:22:25;22.52;;;14.63;;
12445;SDS011;6287;50.984;7.022;2022-08-05T06:24:54;24.40;;;15.00;;
12445;SDS011;6287;50.984;7.022;2022-08-05T06:27:20;26.73;;;15.88;;
12445;SDS011;6287;50.984;7.022;2022-08-05T06:29:46;25.02;;;15.13;;
12445;SDS011;6287;50.984;7.022;2022-08-05T06:32:11;25.48;;;13.77;;
12445;SDS011;6287;50.984;7.022;2022-08-05T06:34:37;26.58;;;15.65;;
12445;SDS011;6287;50.984;7.022;2022-08-05T06:37:03;25.73;;;15.45;;
12445;SDS011;6287;50.984;7.022;2022-08-05T06:39:32;26.13;;;14.75;;
12445;SDS011;6287;50.984;7.022;2022-08-05T06:41:58;24.35;;;15.45;;
12445;SDS011;6287;50.984;7.022;2022-08-05T06:44:26;27.73;;;15.82;;
12445;SDS011;6287;50.984;7.022;2022-08-05T06:46:54;27.23;;;14.55;;
12445;SDS011;6287;50.984;7.022;2022-08-05T06:49:23;25.40;;;14.57;;
12445;SDS011;6287;50.984;7.022;2022-08-05T06:51:50;27.05;;;14.38;;
12445;SDS011;6287;50.984;7.022;2022-08-05T06:54:21;24.35;;;14.63;;
12445;SDS011;6287;50.984;7.022;2022-08-05T06:56:49;24.58;;;14.52;;
12445;SDS011;6287;50.984;7.022;2022-08-05T06:59:14;24.35;;;14.27;;
12445;SDS011;6287;50.984;7.022;2022-08-05T07:01:40;25.27;;;13.75;;
12445;SDS011;6287;50.984;7.022;2022-08-05T07:04:10;29.52;;;15.40;;
12445;SDS011;6287;50.984;7.022;2022-08-05T07:06:41;26.65;;;15.18;;
12445;SDS011;6287;50.984;7.022;2022-08-05T07:09:06;28.42;;;16.13;;
12445;SDS011;6287;50.984;7.022;2022-08-05T07:11:33;25.40;;;14.52;;
12445;SDS011;6287;50.984;7.022;2022-08-05T07:14:03;29.50;;;15.57;;
12445;SDS011;6287;50.984;7.022;2022-08-05T07:16:50;29.65;;;16.05;;
12445;SDS011;6287;50.984;7.022;2022-08-05T07:19:17;28.83;;;15.82;;
12445;SDS011;6287;50.984;7.022;2022-08-05T07:21:47;25.88;;;15.65;;
12445;SDS011;6287;50.984;7.022;2022-08-05T07:24:16;27.20;;;16.02;;
12445;SDS011;6287;50.984;7.022;2022-08-05T07:26:45;27.92;;;15.57;;
12445;SDS011;6287;50.984;7.022;2022-08-05T07:29:12;27.17;;;16.42;;
12445;SDS011;6287;50.984;7.022;2022-08-05T07:31:38;28.75;;;17.15;;
12445;SDS011;6287;50.984;7.022;2022-08-05T07:34:06;29.02;;;16.90;;
12445;SDS011;6287;50.984;7.022;2022-08-05T07:36:34;24.77;;;15.65;;
12445;SDS011;6287;50.984;7.022;2022-08-05T07:39:02;24.55;;;15.68;;
12445;SDS011;6287;50.984;7.022;2022-08-05T07:41:30;23.88;;;15.25;;
12445;SDS011;6287;50.984;7.022;2022-08-05T07:43:56;26.48;;;16.08;;
12445;SDS011;6287;50.984;7.022;2022-08-05T07:46:27;25.58;;;16.77;;
12445;SDS011;6287;50.984;7.022;2022-08-05T07:48:55;27.48;;;16.25;;
12445;SDS011;6287;50.984;7.022;2022-08-05T07:51:22;25.70;;;15.75;;
12445;SDS011;6287;50.984;7.022;2022-08-05T07:53:50;22.92;;;15.27;;
12445;SDS011;6287;50.984;7.022;2022-08-05T07:56:15;27.80;;;16.70;;
12445;SDS011;6287;50.984;7.022;2022-08-05T07:58:41;23.65;;;15.15;;
12445;SDS011;6287;50.984;7.022;2022-08-05T08:01:07;26.58;;;16.48;;
12445;SDS011;6287;50.984;7.022;2022-08-05T08:03:34;22.40;;;14.40;;
12445;SDS011;6287;50.984;7.022;2022-08-05T08:06:05;24.90;;;15.45;;
12445;SDS011;6287;50.984;7.022;2022-08-05T08:08:36;25.52;;;14.75;;
12445;SDS011;6287;50.984;7.022;2022-08-05T08:11:02;19.40;;;13.43;;
12445;SDS011;6287;50.984;7.022;2022-08-05T08:13:27;22.50;;;13.60;;
12445;SDS011;6287;50.984;7.022;2022-08-05T08:15:53;21.80;;;13.32;;
12445;SDS011;6287;50.984;7.022;2022-08-05T08:18:19;22.48;;;14.13;;
12445;SDS011;6287;50.984;7.022;2022-08-05T08:20:46;20.67;;;13.80;;
12445;SDS011;6287;50.984;7.022;2022-08-05T08:23:17;19.67;;;13.10;;
12445;SDS011;6287;50.984;7.022;2022-08-05T08:25:45;22.92;;;13.90;;
12445;SDS011;6287;50.984;7.022;2022-08-05T08:28:13;22.88;;;13.02;;
12445;SDS011;6287;50.984;7.022;2022-08-05T08:30:39;22.35;;;13.98;;
12445;SDS011;6287;50.984;7.022;2022-08-05T08:33:09;24.15;;;14.70;;
12445;SDS011;6287;50.984;7.022;2022-08-05T08:35:36;27.52;;;15.60;;
12445;SDS011;6287;50.984;7.022;2022-08-05T08:38:02;23.73;;;14.25;;
12445;SDS011;6287;50.984;7.022;2022-08-05T08:40:30;20.98;;;13.15;;
12445;SDS011;6287;50.984;7.022;2022-08-05T08:42:59;19.38;;;11.90;;
12445;SDS011;6287;50.984;7.022;2022-08-05T08:45:26;17.70;;;11.45;;
12445;SDS011;6287;50.984;7.022;2022-08-05T08:47:53;16.35;;;11.25;;
12445;SDS011;6287;50.984;7.022;2022-08-05T08:50:20;14.07;;;9.43;;
12445;SDS011;6287;50.984;7.022;2022-08-05T08:52:59;16.70;;;9.77;;
12445;SDS011;6287;50.984;7.022;2022-08-05T08:55:29;13.13;;;8.57;;
12445;SDS011;6287;50.984;7.022;2022-08-05T08:57:58;14.98;;;8.50;;
12445;SDS011;6287;50.984;7.022;2022-08-05T09:00:25;12.50;;;8.65;;
12445;SDS011;6287;50.984;7.022;2022-08-05T09:02:51;9.95;;;7.50;;
12445;SDS011;6287;50.984;7.022;2022-08-05T09:05:20;9.93;;;7.00;;
12445;SDS011;6287;50.984;7.022;2022-08-05T09:07:51;9.27;;;7.30;;
12445;SDS011;6287;50.984;7.022;2022-08-05T09:10:18;10.15;;;6.45;;
12445;SDS011;6287;50.984;7.022;2022-08-05T09:12:44;9.82;;;6.72;;
12445;SDS011;6287;50.984;7.022;2022-08-05T09:15:10;10.45;;;6.78;;
12445;SDS011;6287;50.984;7.022;2022-08-05T09:17:36;11.25;;;6.85;;
12445;SDS011;6287;50.984;7.022;2022-08-05T09:20:04;12.73;;;8.30;;
12445;SDS011;6287;50.984;7.022;2022-08-05T09:25:41;12.45;;;8.65;;
12445;SDS011;6287;50.984;7.022;2022-08-05T09:30:36;15.52;;;9.15;;
12445;SDS011;6287;50.984;7.022;2022-08-05T09:33:02;12.15;;;8.52;;
12445;SDS011;6287;50.984;7.022;2022-08-05T09:35:28;12.93;;;8.65;;
12445;SDS011;6287;50.984;7.022;2022-08-05T09:37:54;10.55;;;7.85;;
12445;SDS011;6287;50.984;7.022;2022-08-05T09:40:31;12.65;;;8.43;;
12445;SDS011;6287;50.984;7.022;2022-08-05T09:42:59;10.88;;;8.50;;
12445;SDS011;6287;50.984;7.022;2022-08-05T09:45:36;11.90;;;7.75;;
12445;SDS011;6287;50.984;7.022;2022-08-05T09:48:26;10.48;;;7.45;;
12445;SDS011;6287;50.984;7.022;2022-08-05T09:50:55;8.18;;;6.53;;
12445;SDS011;6287;50.984;7.022;2022-08-05T09:53:25;8.32;;;6.60;;
12445;SDS011;6287;50.984;7.022;2022-08-05T09:55:54;9.40;;;6.70;;
12445;SDS011;6287;50.984;7.022;2022-08-05T09:58:22;9.60;;;6.57;;
12445;SDS011;6287;50.984;7.022;2022-08-05T10:01:01;8.35;;;6.50;;
12445;SDS011;6287;50.984;7.022;2022-08-05T10:03:29;6.80;;;5.70;;
12445;SDS011;6287;50.984;7.022;2022-08-05T10:06:01;7.65;;;6.28;;
12445;SDS011;6287;50.984;7.022;2022-08-05T10:08:34;7.55;;;5.35;;
12445;SDS011;6287;50.984;7.022;2022-08-05T10:11:04;6.00;;;5.38;;
12445;SDS011;6287;50.984;7.022;2022-08-05T10:13:38;7.40;;;5.82;;
12445;SDS011;6287;50.984;7.022;2022-08-05T10:16:05;7.85;;;6.07;;
12445;SDS011;6287;50.984;7.022;2022-08-05T10:18:53;5.68;;;5.07;;
12445;SDS011;6287;50.984;7.022;2022-08-05T10:21:21;6.57;;;5.75;;
12445;SDS011;6287;50.984;7.022;2022-08-05T10:23:47;5.60;;;5.05;;
12445;SDS011;6287;50.984;7.022;2022-08-05T10:26:14;6.25;;;5.65;;
12445;SDS011;6287;50.984;7.022;2022-08-05T10:28:40;5.30;;;4.80;;
12445;SDS011;6287;50.984;7.022;2022-08-05T10:31:07;5.72;;;4.70;;
12445;SDS011;6287;50.984;7.022;2022-08-05T10:33:39;5.47;;;4.80;;
12445;SDS011;6287;50.984;7.022;2022-08-05T10:36:08;5.70;;;5.00;;
12445;SDS011;6287;50.984;7.022;2022-08-05T10:38:34;5.28;;;4.38;;
12445;SDS011;6287;50.984;7.022;2022-08-05T10:46:16;4.22;;;3.75;;
12445;SDS011;6287;50.984;7.022;2022-08-05T10:53:52;4.22;;;3.53;;
12445;SDS011;6287;50.984;7.022;2022-08-05T10:56:26;3.97;;;3.67;;
12445;SDS011;6287;50.984;7.022;2022-08-05T11:01:38;3.78;;;3.33;;
12445;SDS011;6287;50.984;7.022;2022-08-05T11:04:15;4.53;;;2.88;;
12445;SDS011;6287;50.984;7.022;2022-08-05T11:17:37;2.25;;;2.00;;
12445;SDS011;6287;50.984;7.022;2022-08-05T11:20:04;2.47;;;2.10;;
12445;SDS011;6287;50.984;7.022;2022-08-05T11:22:49;2.40;;;2.20;;
12445;SDS011;6287;50.984;7.022;2022-08-05T11:28:35;3.33;;;2.60;;
12445;SDS011;6287;50.984;7.022;2022-08-05T11:31:28;4.13;;;2.20;;
12445;SDS011;6287;50.984;7.022;2022-08-05T11:33:28;2.90;;;2.60;;
12445;SDS011;6287;50.984;7.022;2022-08-05T11:44:25;3.33;;;2.42;;
12445;SDS011;6287;50.984;7.022;2022-08-05T11:49:14;2.55;;;2.35;;
12445;SDS011;6287;50.984;7.022;2022-08-05T11:51:41;2.63;;;2.40;;
12445;SDS011;6287;50.984;7.022;2022-08-05T11:54:20;2.17;;;2.08;;
12445;SDS011;6287;50.984;7.022;2022-08-05T11:56:52;2.25;;;2.05;;
12445;SDS011;6287;50.984;7.022;2022-08-05T11:59:24;1.77;;;1.60;;
12445;SDS011;6287;50.984;7.022;2022-08-05T12:01:59;1.67;;;1.58;;
12445;SDS011;6287;50.984;7.022;2022-08-05T12:04:45;2.00;;;1.90;;
12445;SDS011;6287;50.984;7.022;2022-08-05T12:07:17;2.15;;;1.95;;
12445;SDS011;6287;50.984;7.022;2022-08-05T12:09:53;3.05;;;2.10;;
12445;SDS011;6287;50.984;7.022;2022-08-05T12:12:23;3.70;;;1.83;;
12445;SDS011;6287;50.984;7.022;2022-08-05T12:14:51;1.70;;;1.60;;
12445;SDS011;6287;50.984;7.022;2022-08-05T12:17:19;2.33;;;1.60;;
12445;SDS011;6287;50.984;7.022;2022-08-05T12:19:59;1.70;;;1.60;;
12445;SDS011;6287;50.984;7.022;2022-08-05T12:22:25;1.70;;;1.60;;
12445;SDS011;6287;50.984;7.022;2022-08-05T12:24:53;1.50;;;1.40;;
12445;SDS011;6287;50.984;7.022;2022-08-05T12:27:23;1.55;;;1.40;;
12445;SDS011;6287;50.984;7.022;2022-08-05T12:32:42;1.35;;;1.30;;
12445;SDS011;6287;50.984;7.022;2022-08-05T12:35:15;1.55;;;1.52;;
12445;SDS011;6287;50.984;7.022;2022-08-05T12:37:41;1.95;;;1.77;;
12445;SDS011;6287;50.984;7.022;2022-08-05T12:40:12;1.60;;;1.50;;
12445;SDS011;6287;50.984;7.022;2022-08-05T12:42:42;2.58;;;1.50;;
12445;SDS011;6287;50.984;7.022;2022-08-05T12:45:12;1.60;;;1.50;;
12445;SDS011;6287;50.984;7.022;2022-08-05T12:47:38;1.95;;;1.80;;
12445;SDS011;6287;50.984;7.022;2022-08-05T12:50:11;1.42;;;1.42;;
12445;SDS011;6287;50.984;7.022;2022-08-05T12:52:38;1.92;;;1.83;;
12445;SDS011;6287;50.984;7.022;2022-08-05T12:55:20;2.08;;;1.75;;
12445;SDS011;6287;50.984;7.022;2022-08-05T12:57:53;2.28;;;2.17;;
12445;SDS011;6287;50.984;7.022;2022-08-05T13:00:24;1.83;;;1.73;;
12445;SDS011;6287;50.984;7.022;2022-08-05T13:02:51;1.77;;;1.60;;
12445;SDS011;6287;50.984;7.022;2022-08-05T13:05:18;2.03;;;1.80;;
12445;SDS011;6287;50.984;7.022;2022-08-05T13:07:46;1.73;;;1.63;;
12445;SDS011;6287;50.984;7.022;2022-08-05T13:10:15;2.08;;;1.98;;
12445;SDS011;6287;50.984;7.022;2022-08-05T13:12:44;1.88;;;1.77;;
12445;SDS011;6287;50.984;7.022;2022-08-05T13:15:13;1.83;;;1.70;;
12445;SDS011;6287;50.984;7.022;2022-08-05T13:17:48;2.85;;;2.60;;
12445;SDS011;6287;50.984;7.022;2022-08-05T13:20:18;1.67;;;1.58;;
12445;SDS011;6287;50.984;7.022;2022-08-05T13:22:50;1.92;;;1.70;;
12445;SDS011;6287;50.984;7.022;2022-08-05T13:25:17;1.67;;;1.58;;
12445;SDS011;6287;50.984;7.022;2022-08-05T13:30:14;3.67;;;2.20;;
12445;SDS011;6287;50.984;7.022;2022-08-05T13:32:41;1.75;;;1.65;;
12445;SDS011;6287;50.984;7.022;2022-08-05T13:35:12;2.00;;;1.90;;
12445;SDS011;6287;50.984;7.022;2022-08-05T13:37:46;3.28;;;2.08;;
12445;SDS011;6287;50.984;7.022;2022-08-05T13:40:15;3.00;;;1.92;;
12445;SDS011;6287;50.984;7.022;2022-08-05T13:42:42;3.35;;;1.85;;
12445;SDS011;6287;50.984;7.022;2022-08-05T13:45:11;1.83;;;1.73;;
12445;SDS011;6287;50.984;7.022;2022-08-05T13:47:44;2.42;;;1.75;;
12445;SDS011;6287;50.984;7.022;2022-08-05T13:50:09;1.90;;;1.80;;
12445;SDS011;6287;50.984;7.022;2022-08-05T13:52:35;2.72;;;1.77;;
12445;SDS011;6287;50.984;7.022;2022-08-05T13:55:03;1.83;;;1.73;;
12445;SDS011;6287;50.984;7.022;2022-08-05T13:57:29;2.33;;;2.10;;
12445;SDS011;6287;50.984;7.022;2022-08-05T13:59:54;2.42;;;1.92;;
12445;SDS011;6287;50.984;7.022;2022-08-05T14:02:28;3.85;;;2.50;;
12445;SDS011;6287;50.984;7.022;2022-08-05T14:04:56;2.20;;;2.00;;
12445;SDS011;6287;50.984;7.022;2022-08-05T14:07:41;2.40;;;1.90;;
12445;SDS011;6287;50.984;7.022;2022-08-05T14:12:35;2.20;;;2.10;;
12445;SDS011;6287;50.984;7.022;2022-08-05T14:15:02;2.13;;;1.90;;
12445;SDS011;6287;50.984;7.022;2022-08-05T14:17:29;2.00;;;1.90;;
12445;SDS011;6287;50.984;7.022;2022-08-05T14:19:54;2.22;;;2.03;;
12445;SDS011;6287;50.984;7.022;2022-08-05T14:22:23;2.20;;;2.00;;
12445;SDS011;6287;50.984;7.022;2022-08-05T14:24:48;2.13;;;1.92;;
12445;SDS011;6287;50.984;7.022;2022-08-05T14:27:17;2.10;;;1.90;;
12445;SDS011;6287;50.984;7.022;2022-08-05T14:29:42;1.67;;;1.45;;
12445;SDS011;6287;50.984;7.022;2022-08-05T14:32:13;3.28;;;1.92;;
12445;SDS011;6287;50.984;7.022;2022-08-05T14:34:41;2.42;;;2.22;;
12445;SDS011;6287;50.984;7.022;2022-08-05T14:37:09;3.25;;;2.00;;
12445;SDS011;6287;50.984;7.022;2022-08-05T14:39:37;3.92;;;2.00;;
12445;SDS011;6287;50.984;7.022;2022-08-05T14:42:04;2.30;;;2.03;;
12445;SDS011;6287;50.984;7.022;2022-08-05T14:44:33;3.10;;;2.40;;
12445;SDS011;6287;50.984;7.022;2022-08-05T14:46:58;2.25;;;2.08;;
12445;SDS011;6287;50.984;7.022;2022-08-05T14:49:28;2.30;;;2.10;;
12445;SDS011;6287;50.984;7.022;2022-08-05T14:51:56;2.10;;;1.85;;
12445;SDS011;6287;50.984;7.022;2022-08-05T14:54:22;1.67;;;1.58;;
12445;SDS011;6287;50.984;7.022;2022-08-05T14:56:50;1.95;;;1.52;;
12445;SDS011;6287;50.984;7.022;2022-08-05T14:59:15;1.75;;;1.48;;
12445;SDS011;6287;50.984;7.022;2022-08-05T15:01:42;2.50;;;1.40;;
12445;SDS011;6287;50.984;7.022;2022-08-05T15:04:10;1.40;;;1.30;;
12445;SDS011;6287;50.984;7.022;2022-08-05T15:06:43;1.50;;;1.10;;
12445;SDS011;6287;50.984;7.022;2022-08-05T15:09:11;1.27;;;1.27;;
12445;SDS011;6287;50.984;7.022;2022-08-05T15:11:39;1.65;;;1.05;;
12445;SDS011;6287;50.984;7.022;2022-08-05T15:14:05;1.58;;;1.17;;
12445;SDS011;6287;50.984;7.022;2022-08-05T15:16:33;2.58;;;1.30;;
12445;SDS011;6287;50.984;7.022;2022-08-05T15:18:58;3.10;;;1.38;;
12445;SDS011;6287;50.984;7.022;2022-08-05T15:21:24;1.10;;;1.00;;
12445;SDS011;6287;50.984;7.022;2022-08-05T15:23:52;1.50;;;1.40;;
12445;SDS011;6287;50.984;7.022;2022-08-05T15:26:23;1.60;;;1.50;;
12445;SDS011;6287;50.984;7.022;2022-08-05T15:28:49;1.20;;;1.10;;
12445;SDS011;6287;50.984;7.022;2022-08-05T15:31:14;1.88;;;1.30;;
12445;SDS011;6287;50.984;7.022;2022-08-05T15:33:42;1.67;;;1.40;;
12445;SDS011;6287;50.984;7.022;2022-08-05T15:36:08;1.35;;;1.35;;
12445;SDS011;6287;50.984;7.022;2022-08-05T15:38:40;1.55;;;1.45;;
12445;SDS011;6287;50.984;7.022;2022-08-05T15:41:09;1.30;;;1.27;;
12445;SDS011;6287;50.984;7.022;2022-08-05T15:43:34;1.83;;;1.67;;
12445;SDS011;6287;50.984;7.022;2022-08-05T15:46:02;1.60;;;1.40;;
12445;SDS011;6287;50.984;7.022;2022-08-05T15:48:31;1.33;;;1.23;;
12445;SDS011;6287;50.984;7.022;2022-08-05T15:50:57;1.33;;;1.33;;
12445;SDS011;6287;50.984;7.022;2022-08-05T15:53:27;1.58;;;1.45;;
12445;SDS011;6287;50.984;7.022;2022-08-05T15:55:55;1.02;;;1.02;;
12445;SDS011;6287;50.984;7.022;2022-08-05T15:58:23;0.80;;;0.80;;
12445;SDS011;6287;50.984;7.022;2022-08-05T16:00:49;1.10;;;1.00;;
12445;SDS011;6287;50.984;7.022;2022-08-05T16:03:17;2.75;;;1.42;;
12445;SDS011;6287;50.984;7.022;2022-08-05T16:05:43;0.73;;;0.73;;
12445;SDS011;6287;50.984;7.022;2022-08-05T16:08:09;0.95;;;0.95;;